Time,TemperatureF,DewpointF,PressureIn,WindDirection,WindDirectionDegrees,WindSpeedMPH,WindSpeedGustMPH,Humidity,HourlyPrecipIn,Conditions,Clouds,dailyrainin,SoftwareType,DateUTC
2013-09-11 00:04:00,73.5,71.0,30.12,South,173,0.0,-999.0,92,-99.99,,,0.00,weatherlink.com 1.10,2013-09-11 05:04:00,
2013-09-11 00:19:00,73.3,71.0,30.12,South,173,0.0,-999.0,92,-99.99,,,0.00,weatherlink.com 1.10,2013-09-11 05:19:00,
2013-09-11 00:34:00,73.1,71.0,30.12,South,173,0.0,-999.0,93,-99.99,,,0.00,weatherlink.com 1.10,2013-09-11 05:34:00,
2013-09-11 00:49:00,73.0,71.0,30.12,South,173,0.0,-999.0,93,-99.99,,,0.00,weatherlink.com 1.10,2013-09-11 05:49:00,
2013-09-11 01:04:00,72.9,71.0,30.12,South,173,0.0,-999.0,94,-99.99,,,0.00,weatherlink.com 1.10,2013-09-11 06:04:00,
2013-09-11 01:19:00,72.7,71.0,30.12,South,173,0.0,-999.0,94,-99.99,,,0.00,weatherlink.com 1.10,2013-09-11 06:19:00,
2013-09-11 01:34:00,72.3,70.0,30.12,South,173,0.0,-999.0,93,-99.99,,,0.00,weatherlink.com 1.10,2013-09-11 06:34:00,
2013-09-11 01:49:00,72.0,70.0,30.11,South,173,0.0,-999.0,93,-99.99,,,0.00,weatherlink.com 1.10,2013-09-11 06:49:00,
2013-09-11 02:05:00,71.9,70.0,30.11,South,173,0.0,-999.0,93,-99.99,,,0.00,weatherlink.com 1.10,2013-09-11 07:05:00,
2013-09-11 02:19:00,71.6,70.0,30.11,South,173,0.0,-999.0,94,-99.99,,,0.00,weatherlink.com 1.10,2013-09-11 07:19:00,
2013-09-11 02:34:00,71.5,69.0,30.11,South,173,0.0,-999.0,93,-99.99,,,0.00,weatherlink.com 1.10,2013-09-11 07:34:00,
2013-09-11 02:49:00,71.4,70.0,30.11,South,173,0.0,-999.0,94,-99.99,,,0.00,weatherlink.com 1.10,2013-09-11 07:49:00,
2013-09-11 03:04:00,71.2,69.0,30.11,South,173,0.0,-999.0,93,-99.99,,,0.00,weatherlink.com 1.10,2013-09-11 08:04:00,
2013-09-11 03:19:00,71.2,69.0,30.11,South,173,0.0,-999.0,94,-99.99,,,0.00,weatherlink.com 1.10,2013-09-11 08:19:00,
2013-09-11 03:34:00,70.9,69.0,30.11,South,173,0.0,-999.0,94,-99.99,,,0.00,weatherlink.com 1.10,2013-09-11 08:34:00,
2013-09-11 03:49:00,71.1,70.0,30.11,South,173,0.0,-999.0,95,-99.99,,,0.00,weatherlink.com 1.10,2013-09-11 08:49:00,
2013-09-11 04:04:00,71.0,70.0,30.11,South,173,0.0,-999.0,95,-99.99,,,0.00,weatherlink.com 1.10,2013-09-11 09:04:00,
2013-09-11 04:19:00,70.8,69.0,30.11,South,173,0.0,-999.0,95,-99.99,,,0.00,weatherlink.com 1.10,2013-09-11 09:19:00,
2013-09-11 04:34:00,70.4,69.0,30.11,South,173,0.0,-999.0,95,-99.99,,,0.00,weatherlink.com 1.10,2013-09-11 09:34:00,
2013-09-11 04:50:00,70.2,69.0,30.12,South,173,0.0,-999.0,95,-99.99,,,0.00,weatherlink.com 1.10,2013-09-11 09:50:00,
2013-09-11 05:04:00,69.9,69.0,30.12,South,173,0.0,-999.0,95,-99.99,,,0.00,weatherlink.com 1.10,2013-09-11 10:04:00,
2013-09-11 05:19:00,70.0,69.0,30.12,South,173,0.0,-999.0,95,-99.99,,,0.00,weatherlink.com 1.10,2013-09-11 10:19:00,
2013-09-11 05:34:00,69.9,69.0,30.13,South,173,0.0,-999.0,95,-99.99,,,0.00,weatherlink.com 1.10,2013-09-11 10:34:00,
2013-09-11 05:49:00,69.9,69.0,30.13,South,173,0.0,-999.0,95,-99.99,,,0.00,weatherlink.com 1.10,2013-09-11 10:49:00,
2013-09-11 06:04:00,69.7,69.0,30.14,South,173,0.0,-999.0,96,-99.99,,,0.00,weatherlink.com 1.10,2013-09-11 11:04:00,
2013-09-11 06:19:00,69.7,68.0,30.14,South,173,0.0,-999.0,95,-99.99,,,0.00,weatherlink.com 1.10,2013-09-11 11:19:00,
2013-09-11 06:34:00,69.5,68.0,30.15,South,173,0.0,-999.0,95,-99.99,,,0.00,weatherlink.com 1.10,2013-09-11 11:34:00,
2013-09-11 06:49:00,69.5,68.0,30.15,South,173,0.0,-999.0,95,-99.99,,,0.00,weatherlink.com 1.10,2013-09-11 11:49:00,
2013-09-11 07:04:00,69.6,68.0,30.15,South,173,0.0,-999.0,95,-99.99,,,0.00,weatherlink.com 1.10,2013-09-11 12:04:00,
2013-09-11 07:19:00,70.3,69.0,30.15,South,173,0.0,-999.0,96,-99.99,,,0.00,weatherlink.com 1.10,2013-09-11 12:19:00,
2013-09-11 07:35:00,71.4,69.0,30.16,South,173,0.0,-999.0,93,-99.99,,,0.01,weatherlink.com 1.10,2013-09-11 12:35:00,
2013-09-11 07:49:00,72.8,70.0,30.16,South,173,0.0,-999.0,90,-99.99,,,0.01,weatherlink.com 1.10,2013-09-11 12:49:00,
2013-09-11 08:04:00,74.7,71.0,30.16,South,173,0.0,-999.0,88,-99.99,,,0.01,weatherlink.com 1.10,2013-09-11 13:04:00,
2013-09-11 08:19:00,75.8,71.0,30.16,South,173,0.0,-999.0,85,-99.99,,,0.01,weatherlink.com 1.10,2013-09-11 13:19:00,
2013-09-11 08:34:00,77.1,71.0,30.16,South,173,0.0,-999.0,80,-99.99,,,0.01,weatherlink.com 1.10,2013-09-11 13:34:00,
2013-09-11 08:49:00,78.2,70.0,30.16,South,173,0.0,-999.0,77,-99.99,,,0.01,weatherlink.com 1.10,2013-09-11 13:49:00,
2013-09-11 09:04:00,78.7,71.0,30.16,South,173,0.0,-999.0,77,-99.99,,,0.01,weatherlink.com 1.10,2013-09-11 14:04:00,
2013-09-11 09:19:00,78.7,71.0,30.16,NNW,333,0.0,-999.0,78,-99.99,,,0.01,weatherlink.com 1.10,2013-09-11 14:19:00,
2013-09-11 09:34:00,79.3,72.0,30.16,NNW,336,0.0,-999.0,77,-99.99,,,0.01,weatherlink.com 1.10,2013-09-11 14:34:00,
2013-09-11 09:49:00,79.5,72.0,30.16,NW,320,0.0,-999.0,78,-99.99,,,0.01,weatherlink.com 1.10,2013-09-11 14:49:00,
2013-09-11 10:04:00,80.1,72.0,30.16,North,355,0.0,-999.0,76,-99.99,,,0.01,weatherlink.com 1.10,2013-09-11 15:04:00,
2013-09-11 10:20:00,80.7,72.0,30.16,NNW,332,0.0,-999.0,75,-99.99,,,0.01,weatherlink.com 1.10,2013-09-11 15:20:00,
2013-09-11 10:34:00,81.2,72.0,30.16,NNW,336,0.0,-999.0,74,-99.99,,,0.01,weatherlink.com 1.10,2013-09-11 15:34:00,
2013-09-11 10:49:00,81.4,73.0,30.15,NNW,342,0.0,-999.0,75,-99.99,,,0.01,weatherlink.com 1.10,2013-09-11 15:49:00,
2013-09-11 11:04:00,81.7,73.0,30.15,NW,325,0.0,-999.0,74,-99.99,,,0.01,weatherlink.com 1.10,2013-09-11 16:04:00,
2013-09-11 11:19:00,82.9,73.0,30.14,North,5,0.0,-999.0,72,-99.99,,,0.01,weatherlink.com 1.10,2013-09-11 16:19:00,
2013-09-11 11:34:00,83.8,73.0,30.14,NNW,341,0.0,-999.0,69,-99.99,,,0.01,weatherlink.com 1.10,2013-09-11 16:34:00,
2013-09-11 11:49:00,84.9,72.0,30.13,NW,324,0.0,-999.0,66,-99.99,,,0.01,weatherlink.com 1.10,2013-09-11 16:49:00,
2013-09-11 12:04:00,85.4,72.0,30.13,NW,316,0.0,-999.0,64,-99.99,,,0.01,weatherlink.com 1.10,2013-09-11 17:04:00,
2013-09-11 12:19:00,86.2,71.0,30.13,NNW,333,0.0,-999.0,60,-99.99,,,0.01,weatherlink.com 1.10,2013-09-11 17:19:00,
2013-09-11 12:34:00,86.7,71.0,30.13,NNW,331,0.0,-999.0,59,-99.99,,,0.01,weatherlink.com 1.10,2013-09-11 17:34:00,
2013-09-11 12:49:00,87.7,71.0,30.13,NNW,329,0.0,-999.0,57,-99.99,,,0.01,weatherlink.com 1.10,2013-09-11 17:49:00,
2013-09-11 13:05:00,86.4,69.0,30.12,NNW,342,0.0,-999.0,57,-99.99,,,0.01,weatherlink.com 1.10,2013-09-11 18:05:00,
2013-09-11 13:19:00,87.3,70.0,30.11,NNW,347,0.0,-999.0,56,-99.99,,,0.01,weatherlink.com 1.10,2013-09-11 18:19:00,
2013-09-11 13:34:00,87.5,69.0,30.11,NW,321,0.0,-999.0,55,-99.99,,,0.01,weatherlink.com 1.10,2013-09-11 18:34:00,
2013-09-11 13:49:00,87.5,70.0,30.10,NNW,338,0.0,-999.0,57,-99.99,,,0.01,weatherlink.com 1.10,2013-09-11 18:49:00,
2013-09-11 14:04:00,87.7,69.0,30.09,North,355,0.0,-999.0,54,-99.99,,,0.01,weatherlink.com 1.10,2013-09-11 19:04:00,
2013-09-11 14:19:00,88.0,70.0,30.09,NW,315,0.0,-999.0,56,-99.99,,,0.01,weatherlink.com 1.10,2013-09-11 19:19:00,
2013-09-11 14:34:00,88.1,69.0,30.07,NNW,329,0.0,-999.0,53,-99.99,,,0.01,weatherlink.com 1.10,2013-09-11 19:34:00,
2013-09-11 14:49:00,88.6,71.0,30.07,NW,305,0.0,-999.0,56,-99.99,,,0.01,weatherlink.com 1.10,2013-09-11 19:49:00,
2013-09-11 15:04:00,87.2,70.0,30.06,WNW,293,0.0,-999.0,56,-99.99,,,0.01,weatherlink.com 1.10,2013-09-11 20:04:00,
2013-09-11 15:19:00,86.7,73.0,30.06,WNW,293,0.0,-999.0,63,-99.99,,,0.01,weatherlink.com 1.10,2013-09-11 20:19:00,
2013-09-11 15:34:00,88.1,72.0,30.05,WNW,293,0.0,-999.0,59,-99.99,,,0.01,weatherlink.com 1.10,2013-09-11 20:34:00,
2013-09-11 15:49:00,90.2,71.0,30.05,WNW,292,0.0,-999.0,53,-99.99,,,0.01,weatherlink.com 1.10,2013-09-11 20:49:00,
2013-09-11 16:04:00,89.2,70.0,30.05,South,176,0.0,-999.0,53,-99.99,,,0.01,weatherlink.com 1.10,2013-09-11 21:04:00,
2013-09-11 16:19:00,90.0,68.0,30.05,South,182,0.0,-999.0,48,-99.99,,,0.01,weatherlink.com 1.10,2013-09-11 21:19:00,
2013-09-11 16:34:00,89.9,68.0,30.05,SE,132,0.0,-999.0,49,-99.99,,,0.01,weatherlink.com 1.10,2013-09-11 21:34:00,
2013-09-11 16:49:00,89.0,70.0,30.05,SE,132,0.0,-999.0,53,-99.99,,,0.01,weatherlink.com 1.10,2013-09-11 21:49:00,
2013-09-11 17:04:00,88.7,70.0,30.05,SE,138,0.0,-999.0,54,-99.99,,,0.01,weatherlink.com 1.10,2013-09-11 22:04:00,
2013-09-11 17:19:00,88.3,72.0,30.05,SE,138,0.0,-999.0,59,-99.99,,,0.01,weatherlink.com 1.10,2013-09-11 22:19:00,
2013-09-11 17:34:00,86.2,72.0,30.05,SE,138,0.0,-999.0,63,-99.99,,,0.01,weatherlink.com 1.10,2013-09-11 22:34:00,
2013-09-11 17:49:00,85.2,72.0,30.05,SE,138,0.0,-999.0,65,-99.99,,,0.01,weatherlink.com 1.10,2013-09-11 22:49:00,
2013-09-11 18:04:00,83.7,71.0,30.05,SE,138,0.0,-999.0,66,-99.99,,,0.01,weatherlink.com 1.10,2013-09-11 23:04:00,
2013-09-11 18:19:00,81.7,70.0,30.04,SE,138,0.0,-999.0,68,-99.99,,,0.01,weatherlink.com 1.10,2013-09-11 23:19:00,
2013-09-11 18:34:00,81.0,69.0,30.04,SE,138,0.0,-999.0,68,-99.99,,,0.01,weatherlink.com 1.10,2013-09-11 23:34:00,
2013-09-11 18:49:00,79.9,69.0,30.04,SE,138,0.0,-999.0,70,-99.99,,,0.01,weatherlink.com 1.10,2013-09-11 23:49:00,
2013-09-11 19:04:00,79.1,70.0,30.05,SE,138,0.0,-999.0,74,-99.99,,,0.01,weatherlink.com 1.10,2013-09-12 00:04:00,
2013-09-11 19:19:00,78.0,71.0,30.05,SE,138,0.0,-999.0,78,-99.99,,,0.01,weatherlink.com 1.10,2013-09-12 00:19:00,
2013-09-11 19:34:00,77.6,71.0,30.05,SE,138,0.0,-999.0,81,-99.99,,,0.01,weatherlink.com 1.10,2013-09-12 00:34:00,
2013-09-11 19:49:00,76.7,71.0,30.05,SE,138,0.0,-999.0,81,-99.99,,,0.01,weatherlink.com 1.10,2013-09-12 00:49:00,
2013-09-11 20:04:00,76.0,71.0,30.06,SE,138,0.0,-999.0,84,-99.99,,,0.01,weatherlink.com 1.10,2013-09-12 01:04:00,
2013-09-11 20:19:00,75.7,72.0,30.06,SE,138,0.0,-999.0,87,-99.99,,,0.01,weatherlink.com 1.10,2013-09-12 01:19:00,
2013-09-11 20:34:00,75.5,71.0,30.07,SE,138,0.0,-999.0,87,-99.99,,,0.01,weatherlink.com 1.10,2013-09-12 01:34:00,
2013-09-11 20:49:00,75.1,71.0,30.07,SE,138,0.0,-999.0,87,-99.99,,,0.01,weatherlink.com 1.10,2013-09-12 01:49:00,
2013-09-11 21:04:00,74.4,71.0,30.07,SE,138,0.0,-999.0,89,-99.99,,,0.01,weatherlink.com 1.10,2013-09-12 02:04:00,
2013-09-11 21:19:00,74.0,71.0,30.06,SE,138,0.0,-999.0,89,-99.99,,,0.01,weatherlink.com 1.10,2013-09-12 02:19:00,
2013-09-11 21:34:00,73.7,71.0,30.06,SE,138,0.0,-999.0,90,-99.99,,,0.01,weatherlink.com 1.10,2013-09-12 02:34:00,
2013-09-11 21:49:00,73.1,70.0,30.06,SE,138,0.0,-999.0,90,-99.99,,,0.01,weatherlink.com 1.10,2013-09-12 02:49:00,
2013-09-11 22:04:00,72.7,70.0,30.06,SE,138,0.0,-999.0,91,-99.99,,,0.01,weatherlink.com 1.10,2013-09-12 03:04:00,
2013-09-11 22:19:00,72.4,70.0,30.06,SE,138,0.0,-999.0,91,-99.99,,,0.01,weatherlink.com 1.10,2013-09-12 03:19:00,
2013-09-11 22:34:00,71.8,69.0,30.06,SE,138,0.0,-999.0,91,-99.99,,,0.01,weatherlink.com 1.10,2013-09-12 03:34:00,
2013-09-11 22:49:00,71.5,69.0,30.05,SE,138,0.0,-999.0,90,-99.99,,,0.01,weatherlink.com 1.10,2013-09-12 03:49:00,
2013-09-11 23:04:00,71.2,69.0,30.05,SE,138,0.0,-999.0,91,-99.99,,,0.01,weatherlink.com 1.10,2013-09-12 04:04:00,
2013-09-11 23:19:00,70.9,68.0,30.05,SE,138,0.0,-999.0,91,-99.99,,,0.01,weatherlink.com 1.10,2013-09-12 04:19:00,
2013-09-11 23:34:00,70.5,68.0,30.05,SE,138,0.0,-999.0,91,-99.99,,,0.01,weatherlink.com 1.10,2013-09-12 04:34:00,
2013-09-11 23:49:00,70.4,68.0,30.04,SE,138,0.0,-999.0,91,-99.99,,,0.01,weatherlink.com 1.10,2013-09-12 04:49:00,